DTTA/TUN METAR and TAF weather

Enter ICAO airport designator
Station Type Date Time Source
DTTA METAR 2020/01/20 13:00 UTC NOAA

DTTA 201300Z 12012G23KT 080V160 8000 SCT026TCU 17/10 Q1022


Station Type Date Time Source
DTTA Decoded METAR 2020/01/20 13:00 UTC NOAA

Tunis-Carthage, Tunisia (DTTA) 36-50N 010-14E 4M
Jan 20, 2020 - 08:00 AM EST / 2020.01.20 1300 UTC
Wind: from the ESE (120 degrees) at 14 MPH (12 KT) gusting to 26 MPH (23 KT) (direction variable):0
Visibility: 4 mile(s):0
Sky conditions: partly cloudy
Weather: Towering cumulus clouds observed
Temperature: 62 F (17 C)
Dew Point: 50 F (10 C)
Relative Humidity: 63%
Pressure (altimeter): 30.18 in. Hg (1022 hPa)
ob: DTTA 201300Z 12012G23KT 080V160 8000 SCT026TCU 17/10 Q1022
cycle: 13

Station Type Date Time Source
DTTA TAF 2020/01/20 12:42 UTC NOAA

TAF DTTA 201100Z 2012/2112 12015KT 8000 SCT026
BECMG 2014/2016 13020G39KT PROB30
TEMPO 2014/2018 -RA SCT026TCU FEW030CB

Example: see airport list